Murrieta, California
Current Conditions -  °F | °C
As of 9:15 AM on Wednesday 26 Nov 2014 (Local Time) from KF70 Reporting Station
Clear Clear  
Wind Chill: 64°   Ceiling: Unl
Heat Index: 64°   Visibility: 10mi
Dew Point: 21°   Wind: 5mph
Humidity: 19%   Direction: 10°N
Pressure: 30.28"   Gusts: NA
Location:  33.56°N, 117.21°W
Report Text: KF70 261715Z AUTO 01004KT 10SM CLR 18/M06 A3028 RMK AO1
Loading
Personal Weather Stations






























Interactive Weather Map New forecast layout! Learn more

10-Day Weather Forecast

Advertisements
Track Severe Weather on mobile